createdAt,value
2022-08-05T00:01:56.858Z,11.23
2022-08-05T00:04:09.742Z,14.77
2022-08-05T00:06:27.782Z,11.43
2022-08-05T00:08:36.198Z,10.85
2022-08-05T00:10:37.979Z,10.88
2022-08-05T00:12:56.060Z,11.32
2022-08-05T00:14:58.656Z,11.43
2022-08-05T00:17:01.683Z,14.63
2022-08-05T00:19:04.201Z,11.98
2022-08-05T00:21:06.977Z,10.75
2022-08-05T00:23:12.849Z,13.02
2022-08-05T00:25:14.733Z,13.52
2022-08-05T00:27:18.023Z,10.93
2022-08-05T00:29:22.609Z,10.88
2022-08-05T00:31:54.264Z,14.43
2022-08-05T00:34:56.489Z,11.75
2022-08-05T00:36:16.516Z,15.93
2022-08-05T00:38:33.990Z,14.48
2022-08-05T00:40:53.284Z,19.50
2022-08-05T00:42:58.930Z,22.73
2022-08-05T00:45:01.028Z,21.02
2022-08-05T00:47:05.643Z,17.73
2022-08-05T00:49:07.844Z,19.23
2022-08-05T00:51:50.596Z,15.60
2022-08-05T00:54:01.481Z,16.23
2022-08-05T00:55:52.806Z,15.65
2022-08-05T00:57:58.118Z,13.80
2022-08-05T01:00:00.711Z,15.02
2022-08-05T01:02:02.298Z,14.20
2022-08-05T01:04:04.168Z,15.35
2022-08-05T01:06:15.622Z,15.80
2022-08-05T01:08:42.232Z,14.25
2022-08-05T01:10:51.688Z,15.00
2022-08-05T01:13:05.366Z,16.33
2022-08-05T01:15:35.815Z,16.38
2022-08-05T01:17:53.852Z,15.13
2022-08-05T01:20:06.773Z,14.75
2022-08-05T01:22:18.920Z,18.00
2022-08-05T01:25:04.501Z,18.48
2022-08-05T01:27:55.065Z,20.50
2022-08-05T01:30:02.314Z,21.98
2022-08-05T01:32:07.074Z,24.55
2022-08-05T01:34:26.709Z,22.67
2022-08-05T01:36:33.074Z,19.50
2022-08-05T01:38:35.314Z,18.25
2022-08-05T01:40:38.287Z,22.27
2022-08-05T01:42:42.849Z,20.10
2022-08-05T01:44:45.827Z,18.17
2022-08-05T01:46:56.138Z,15.00
2022-08-05T01:48:59.009Z,15.60
2022-08-05T01:51:12.314Z,17.52
2022-08-05T01:53:16.884Z,16.50
2022-08-05T01:55:39.614Z,16.42
2022-08-05T01:58:29.707Z,15.15
2022-08-05T02:00:11.865Z,14.25
2022-08-05T02:02:14.244Z,14.98
2022-08-05T02:04:18.656Z,19.08
2022-08-05T02:06:33.669Z,16.05
2022-08-05T02:08:54.905Z,16.70
2022-08-05T02:11:12.429Z,12.45
2022-08-05T02:13:55.940Z,13.48
2022-08-05T02:16:07.832Z,12.57
2022-08-05T02:18:36.736Z,13.30
2022-08-05T02:20:50.236Z,16.98
2022-08-05T02:22:58.946Z,17.00
2022-08-05T02:25:22.429Z,15.27
2022-08-05T02:27:29.635Z,14.90
2022-08-05T02:29:58.883Z,12.23
2022-08-05T02:32:04.720Z,12.00
2022-08-05T02:34:13.555Z,11.88
2022-08-05T02:36:17.038Z,12.48
2022-08-05T02:38:19.322Z,14.75
2022-08-05T02:40:22.194Z,15.15
2022-08-05T02:42:30.726Z,14.57
2022-08-05T02:44:37.793Z,12.40
2022-08-05T02:46:53.376Z,11.52
2022-08-05T02:49:02.822Z,9.70
2022-08-05T02:51:04.858Z,9.88
2022-08-05T02:53:06.765Z,9.68
2022-08-05T02:55:14.000Z,9.82
2022-08-05T02:58:09.881Z,11.05
2022-08-05T02:59:48.073Z,9.95
2022-08-05T03:01:58.151Z,9.07
2022-08-05T03:04:11.865Z,10.00
2022-08-05T03:06:56.887Z,13.15
2022-08-05T03:08:39.143Z,12.40
2022-08-05T03:11:53.058Z,12.05
2022-08-05T03:13:19.032Z,13.93
2022-08-05T03:15:29.218Z,14.13
2022-08-05T03:17:30.755Z,11.38
2022-08-05T03:19:34.503Z,16.27
2022-08-05T03:21:41.581Z,13.30
2022-08-05T03:23:51.062Z,13.32
2022-08-05T03:26:04.960Z,11.88
2022-08-05T03:28:14.552Z,15.38
2022-08-05T03:30:20.769Z,14.20
2022-08-05T03:32:22.576Z,11.88
2022-08-05T03:34:33.074Z,11.07
2022-08-05T03:36:34.681Z,10.48
2022-08-05T03:38:40.798Z,18.02
2022-08-05T03:40:47.220Z,19.52
2022-08-05T03:42:52.052Z,21.55
2022-08-05T03:44:54.174Z,16.67
2022-08-05T03:46:55.806Z,12.48
2022-08-05T03:48:58.343Z,13.30
2022-08-05T03:52:35.151Z,13.50
2022-08-05T03:55:50.797Z,10.52
2022-08-05T03:56:33.115Z,9.27
2022-08-05T03:58:38.384Z,8.43
2022-08-05T04:00:44.313Z,11.02
2022-08-05T04:02:59.039Z,8.40
2022-08-05T04:05:01.670Z,8.27
2022-08-05T04:07:03.937Z,8.85
2022-08-05T04:09:08.734Z,10.95
2022-08-05T04:11:11.138Z,12.45
2022-08-05T04:13:14.019Z,10.93
2022-08-05T04:15:15.777Z,12.32
2022-08-05T04:17:18.459Z,9.80
2022-08-05T04:19:21.111Z,10.00
2022-08-05T04:22:05.096Z,9.65
2022-08-05T04:24:05.239Z,10.50
2022-08-05T04:26:08.539Z,12.50
2022-08-05T04:28:15.291Z,9.57
2022-08-05T04:30:18.925Z,15.65
2022-08-05T04:32:31.170Z,9.55
2022-08-05T04:34:37.502Z,13.27
2022-08-05T04:36:49.473Z,12.50
2022-08-05T04:38:54.722Z,14.30
2022-08-05T04:40:58.783Z,11.57
2022-08-05T04:43:00.374Z,12.93
2022-08-05T04:45:01.941Z,9.65
2022-08-05T04:47:09.335Z,10.13
2022-08-05T04:49:14.750Z,12.93
2022-08-05T04:51:17.995Z,9.88
2022-08-05T04:53:19.685Z,9.65
2022-08-05T04:55:39.821Z,10.95
2022-08-05T04:57:47.580Z,10.05
2022-08-05T04:59:49.738Z,12.70
2022-08-05T05:02:08.306Z,11.30
2022-08-05T05:04:13.796Z,17.60
2022-08-05T05:06:40.199Z,9.88
2022-08-05T05:08:37.860Z,10.05
2022-08-05T05:10:55.768Z,10.55
2022-08-05T05:12:58.527Z,10.50
2022-08-05T05:15:03.713Z,8.88
2022-08-05T05:17:07.514Z,8.05
2022-08-05T05:19:19.177Z,8.55
2022-08-05T05:21:21.157Z,10.00
2022-08-05T05:23:50.361Z,11.20
2022-08-05T05:25:50.303Z,10.05
2022-08-05T05:27:55.794Z,8.75
2022-08-05T05:30:04.669Z,10.20
2022-08-05T05:32:06.974Z,10.65
2022-08-05T05:34:14.226Z,8.68
2022-08-05T05:36:17.409Z,8.07
2022-08-05T05:38:22.431Z,9.07
2022-08-05T05:40:30.039Z,9.77
2022-08-05T05:42:33.716Z,9.23
2022-08-05T05:44:42.923Z,7.32
2022-08-05T05:46:46.015Z,9.02
2022-08-05T05:48:49.420Z,6.72
2022-08-05T05:50:52.526Z,8.00
2022-08-05T05:52:54.439Z,9.70
2022-08-05T05:54:59.626Z,6.97
2022-08-05T05:57:01.288Z,7.57
2022-08-05T05:59:06.665Z,7.13
2022-08-05T06:01:12.749Z,6.30
2022-08-05T06:03:39.785Z,10.27
2022-08-05T06:05:38.389Z,6.50
2022-08-05T06:07:42.473Z,9.70
2022-08-05T06:10:04.565Z,7.72
2022-08-05T06:12:09.652Z,9.05
2022-08-05T06:14:13.806Z,7.18
2022-08-05T06:16:30.597Z,7.70
2022-08-05T06:18:36.539Z,11.88
2022-08-05T06:20:40.947Z,6.78
2022-08-05T06:22:49.399Z,8.13
2022-08-05T06:24:52.000Z,5.22
2022-08-05T06:26:54.110Z,4.03
2022-08-05T06:28:57.162Z,6.35
2022-08-05T06:30:58.761Z,7.45
2022-08-05T06:33:00.329Z,4.70
2022-08-05T06:35:05.772Z,5.55
2022-08-05T06:37:08.338Z,4.53
2022-08-05T06:39:09.982Z,9.07
2022-08-05T06:41:11.773Z,4.80
2022-08-05T06:43:59.083Z,5.95
2022-08-05T06:45:44.779Z,5.35
2022-08-05T06:48:36.368Z,6.82
2022-08-05T06:50:18.923Z,6.60
2022-08-05T06:52:36.942Z,6.80
2022-08-05T06:54:39.932Z,3.77
2022-08-05T06:56:41.471Z,5.07
2022-08-05T06:58:57.243Z,6.93
2022-08-05T07:01:02.523Z,4.65
2022-08-05T07:03:04.199Z,7.43
2022-08-05T07:05:18.629Z,8.00
2022-08-05T07:07:35.299Z,8.73
2022-08-05T07:09:43.354Z,5.78
2022-08-05T07:11:49.382Z,4.35
2022-08-05T07:14:15.409Z,4.05
2022-08-05T07:17:58.471Z,7.43
2022-08-05T07:19:02.100Z,4.88
2022-08-05T07:21:05.353Z,8.90
2022-08-05T07:23:07.200Z,3.17
2022-08-05T07:25:23.118Z,5.03
2022-08-05T07:27:57.585Z,5.78
2022-08-05T07:30:23.885Z,5.43
2022-08-05T07:32:15.735Z,3.05
2022-08-05T07:34:17.362Z,4.13
2022-08-05T07:36:27.462Z,4.63
2022-08-05T07:38:33.055Z,5.25
2022-08-05T07:40:36.260Z,5.05
2022-08-05T07:42:38.005Z,4.00
2022-08-05T07:44:39.825Z,3.40
2022-08-05T07:46:41.418Z,4.15
2022-08-05T07:49:03.875Z,5.43
2022-08-05T07:51:23.109Z,5.75
2022-08-05T07:53:37.039Z,5.18
2022-08-05T07:56:06.385Z,4.32
2022-08-05T07:58:17.575Z,5.15
2022-08-05T08:00:32.592Z,4.95
2022-08-05T08:03:13.548Z,3.75
2022-08-05T08:04:56.270Z,12.60
2022-08-05T08:07:00.864Z,3.25
2022-08-05T08:09:07.084Z,5.75
2022-08-05T08:11:09.118Z,3.97
2022-08-05T08:13:21.933Z,7.97
2022-08-05T08:16:33.913Z,5.45
2022-08-05T08:17:53.253Z,4.13
2022-08-05T08:20:23.478Z,4.85
2022-08-05T08:22:16.632Z,2.65
2022-08-05T08:24:18.228Z,10.13
2022-08-05T08:26:29.381Z,4.32
2022-08-05T08:28:37.166Z,3.65
2022-08-05T08:30:47.890Z,3.22
2022-08-05T08:32:51.435Z,2.30
2022-08-05T08:34:55.089Z,3.72
2022-08-05T08:37:04.813Z,2.90
2022-08-05T08:39:15.824Z,3.60
2022-08-05T08:41:18.253Z,3.53
2022-08-05T08:45:19.856Z,3.65
2022-08-05T08:45:44.927Z,4.63
2022-08-05T08:48:07.080Z,2.95
2022-08-05T08:50:33.197Z,4.18
2022-08-05T08:52:35.809Z,5.70
2022-08-05T08:54:39.719Z,6.20
2022-08-05T08:56:47.663Z,6.78
2022-08-05T08:58:51.434Z,4.55
2022-08-05T09:00:53.099Z,4.20
2022-08-05T09:02:54.716Z,5.65
2022-08-05T09:05:16.805Z,5.00
2022-08-05T09:07:28.170Z,4.32
2022-08-05T09:09:34.680Z,3.17
2022-08-05T09:11:53.770Z,6.55
2022-08-05T09:14:09.116Z,3.22
2022-08-05T09:16:19.550Z,5.57
2022-08-05T09:18:21.731Z,3.33
2022-08-05T09:20:37.753Z,4.97
2022-08-05T09:23:05.219Z,5.65
2022-08-05T09:25:14.006Z,8.00
2022-08-05T09:28:05.719Z,4.57
2022-08-05T09:30:06.319Z,6.63
2022-08-05T09:32:41.033Z,4.68
2022-08-05T09:34:52.241Z,6.20
2022-08-05T09:36:56.143Z,6.13
2022-08-05T09:39:18.488Z,12.88
2022-08-05T09:41:24.865Z,4.28
2022-08-05T09:43:41.344Z,4.70
2022-08-05T09:46:06.568Z,7.22
2022-08-05T09:48:30.106Z,4.15
2022-08-05T09:50:38.934Z,3.80
2022-08-05T09:52:47.239Z,6.13
2022-08-05T09:54:58.641Z,5.60
2022-08-05T09:57:06.332Z,5.70
2022-08-05T09:59:27.477Z,3.10
2022-08-05T10:01:36.438Z,3.70
2022-08-05T10:03:58.693Z,5.68
2022-08-05T10:06:14.742Z,7.50
2022-08-05T10:08:36.918Z,15.00
2022-08-05T10:10:53.957Z,6.75
2022-08-05T10:13:00.014Z,6.63
2022-08-05T10:15:17.083Z,5.20
2022-08-05T10:17:37.632Z,4.57
2022-08-05T10:20:04.258Z,4.65
2022-08-05T10:22:04.021Z,4.20
2022-08-05T10:24:10.752Z,4.85
2022-08-05T10:26:24.169Z,3.35
2022-08-05T10:28:31.980Z,4.15
2022-08-05T10:31:20.412Z,4.57
2022-08-05T10:33:09.439Z,8.02
2022-08-05T10:35:16.621Z,5.13
2022-08-05T10:37:22.795Z,9.90
2022-08-05T10:39:59.322Z,7.28
2022-08-05T10:42:11.854Z,6.13
2022-08-05T10:44:22.457Z,7.28
2022-08-05T10:46:24.973Z,10.60
2022-08-05T10:48:52.992Z,4.50
2022-08-05T10:51:21.389Z,3.40
2022-08-05T10:53:38.212Z,7.45
2022-08-05T10:56:05.354Z,4.35
2022-08-05T10:58:35.729Z,4.65
2022-08-05T11:00:54.989Z,3.80
2022-08-05T11:03:29.342Z,3.58
2022-08-05T11:05:31.789Z,6.05
2022-08-05T11:08:02.733Z,6.18
2022-08-05T11:10:21.909Z,5.90
2022-08-05T11:12:34.810Z,6.40
2022-08-05T11:15:01.286Z,4.88
2022-08-05T11:18:07.316Z,4.50
2022-08-05T11:20:11.151Z,5.28
2022-08-05T11:22:42.248Z,5.97
2022-08-05T11:24:50.717Z,3.40
2022-08-05T11:27:45.789Z,4.55
2022-08-05T11:29:59.978Z,3.50
2022-08-05T11:32:30.143Z,5.95
2022-08-05T11:34:50.807Z,6.57
2022-08-05T11:36:54.823Z,5.10
2022-08-05T11:38:58.574Z,8.32
2022-08-05T11:41:35.104Z,3.88
2022-08-05T11:44:01.096Z,4.55
2022-08-05T11:46:15.099Z,5.13
2022-08-05T11:48:11.474Z,4.10
2022-08-05T11:50:14.293Z,4.78
2022-08-05T11:52:23.841Z,5.45
2022-08-05T11:54:34.967Z,4.03
2022-08-05T11:56:50.383Z,7.80
2022-08-05T11:58:53.325Z,6.25
2022-08-05T12:01:04.883Z,5.32
2022-08-05T12:03:29.030Z,6.63
2022-08-05T12:05:39.895Z,3.92
2022-08-05T12:08:03.226Z,5.60
2022-08-05T12:10:09.529Z,4.45
2022-08-05T12:12:13.187Z,4.63
2022-08-05T12:14:14.798Z,4.07
2022-08-05T12:16:27.142Z,6.47
2022-08-05T12:18:38.649Z,4.32
2022-08-05T12:20:40.773Z,4.07
2022-08-05T12:22:43.206Z,12.15
2022-08-05T12:24:51.756Z,7.57
2022-08-05T12:26:54.824Z,4.68
2022-08-05T12:28:56.414Z,5.82
2022-08-05T12:31:05.296Z,4.93
2022-08-05T12:33:27.676Z,4.65
2022-08-05T12:35:38.574Z,5.80
2022-08-05T12:37:43.244Z,4.15
2022-08-05T12:39:48.511Z,4.68
2022-08-05T12:41:58.286Z,3.70
2022-08-05T12:44:06.221Z,11.70
2022-08-05T12:46:29.789Z,6.20
2022-08-05T12:48:40.005Z,6.20
2022-08-05T12:50:41.625Z,4.63
2022-08-05T12:52:57.902Z,7.38
2022-08-05T12:54:59.795Z,4.13
2022-08-05T12:57:04.754Z,9.70
2022-08-05T12:59:14.007Z,9.38
2022-08-05T13:02:03.554Z,4.32
2022-08-05T13:03:48.855Z,4.15
2022-08-05T13:05:53.776Z,6.43
2022-08-05T13:08:00.547Z,7.82
2022-08-05T13:10:02.609Z,5.93
2022-08-05T13:12:05.514Z,4.38
2022-08-05T13:14:19.885Z,6.82
2022-08-05T13:16:25.189Z,3.70
2022-08-05T13:18:40.519Z,4.85
2022-08-05T13:20:42.066Z,4.82
2022-08-05T13:22:50.815Z,7.22
2022-08-05T13:24:58.107Z,6.72
2022-08-05T13:27:02.182Z,5.95
2022-08-05T13:29:05.241Z,4.80
2022-08-05T13:31:13.861Z,4.38
2022-08-05T13:34:20.201Z,4.95
2022-08-05T13:35:47.176Z,4.25
2022-08-05T13:37:55.732Z,5.30
2022-08-05T13:40:15.973Z,6.03
2022-08-05T13:42:24.160Z,10.73
2022-08-05T13:44:27.000Z,5.03
2022-08-05T13:46:44.296Z,8.73
2022-08-05T13:49:02.049Z,5.93
2022-08-05T13:51:10.184Z,6.90
2022-08-05T13:53:26.139Z,6.05
2022-08-05T13:55:41.846Z,6.88
2022-08-05T13:57:51.937Z,4.30
2022-08-05T13:59:57.458Z,6.47
2022-08-05T14:02:04.501Z,4.55
2022-08-05T14:04:26.671Z,6.47
2022-08-05T14:06:28.457Z,8.07
2022-08-05T14:08:32.508Z,6.70
2022-08-05T14:10:35.496Z,6.82
2022-08-05T14:12:42.876Z,9.48
2022-08-05T14:14:44.815Z,6.20
2022-08-05T14:16:46.845Z,6.40
2022-08-05T14:18:51.849Z,6.38
2022-08-05T14:20:55.125Z,7.38
2022-08-05T14:22:58.238Z,5.55
2022-08-05T14:25:00.659Z,5.75
2022-08-05T14:27:17.587Z,7.82
2022-08-05T14:29:20.339Z,9.85
2022-08-05T14:32:02.217Z,4.88
2022-08-05T14:33:59.082Z,6.22
2022-08-05T14:36:07.990Z,4.97
2022-08-05T14:38:32.485Z,6.28
2022-08-05T14:40:32.370Z,7.55
2022-08-05T14:42:36.425Z,17.90
2022-08-05T14:44:39.742Z,8.65
2022-08-05T14:46:43.135Z,6.13
2022-08-05T14:48:49.179Z,8.60
2022-08-05T14:50:51.621Z,6.65
2022-08-05T14:52:58.762Z,4.78
2022-08-05T14:55:01.175Z,5.10
2022-08-05T14:57:05.424Z,6.13
2022-08-05T14:59:11.557Z,8.35
2022-08-05T15:01:15.576Z,4.50
2022-08-05T15:03:18.108Z,5.45
2022-08-05T15:05:20.529Z,4.88
2022-08-05T15:08:12.485Z,7.57
2022-08-05T15:09:52.045Z,5.10
2022-08-05T15:11:57.115Z,7.32
2022-08-05T15:13:59.238Z,6.60
2022-08-05T15:16:01.625Z,7.15
2022-08-05T15:18:05.851Z,5.75
2022-08-05T15:20:17.169Z,4.38
2022-08-05T15:22:20.786Z,11.68
2022-08-05T15:24:23.255Z,4.63
2022-08-05T15:26:32.306Z,7.13
2022-08-05T15:28:34.095Z,6.68
2022-08-05T15:30:39.044Z,7.95
2022-08-05T15:32:41.943Z,5.07
2022-08-05T15:34:43.534Z,5.30
2022-08-05T15:36:45.094Z,5.20
2022-08-05T15:38:47.240Z,4.60
2022-08-05T15:41:04.195Z,6.07
2022-08-05T15:43:19.652Z,4.95
2022-08-05T15:45:37.912Z,9.90
2022-08-05T15:47:41.445Z,7.20
2022-08-05T15:49:58.757Z,11.52
2022-08-05T15:52:04.136Z,12.05
2022-08-05T15:54:15.882Z,9.15
2022-08-05T15:56:18.434Z,6.03
2022-08-05T15:58:20.415Z,7.97
2022-08-05T16:00:26.482Z,16.27
2022-08-05T16:02:45.144Z,7.72
2022-08-05T16:04:47.309Z,8.00
2022-08-05T16:06:48.935Z,5.43
2022-08-05T16:08:53.784Z,9.73
2022-08-05T16:10:59.649Z,6.82
2022-08-05T16:13:01.239Z,5.47
2022-08-05T16:15:02.851Z,9.30
2022-08-05T16:17:04.433Z,6.70
2022-08-05T16:19:06.649Z,9.30
2022-08-05T16:21:11.420Z,4.78
2022-08-05T16:23:15.286Z,6.13
2022-08-05T16:25:17.215Z,8.90
2022-08-05T16:27:19.039Z,6.55
2022-08-05T16:29:21.592Z,9.00
2022-08-05T16:31:23.242Z,5.95
2022-08-05T16:33:27.054Z,12.20
2022-08-05T16:35:33.477Z,9.63
2022-08-05T16:38:15.095Z,11.98
2022-08-05T16:40:06.309Z,7.70
2022-08-05T16:42:14.277Z,7.55
2022-08-05T16:44:30.238Z,7.00
2022-08-05T16:46:31.888Z,10.55
2022-08-05T16:48:35.379Z,8.32
2022-08-05T16:50:37.488Z,113.15
2022-08-05T16:52:39.110Z,16.50
2022-08-05T16:54:47.604Z,16.98
2022-08-05T16:56:51.987Z,30.85
2022-08-05T16:58:53.922Z,11.05
2022-08-05T17:00:55.588Z,13.20
2022-08-05T17:02:57.197Z,14.02
2022-08-05T17:04:58.894Z,9.68
2022-08-05T17:07:01.452Z,7.53
2022-08-05T17:09:04.838Z,9.85
2022-08-05T17:11:08.893Z,9.73
2022-08-05T17:13:17.077Z,12.10
2022-08-05T17:15:23.015Z,8.70
2022-08-05T17:18:02.167Z,7.20
2022-08-05T17:19:55.878Z,11.73
2022-08-05T17:21:58.647Z,10.32
2022-08-05T17:24:05.071Z,11.15
2022-08-05T17:26:11.770Z,9.57
2022-08-05T17:28:15.392Z,9.98
2022-08-05T17:30:19.046Z,5.63
2022-08-05T17:32:30.190Z,7.85
2022-08-05T17:34:35.306Z,7.32
2022-08-05T17:36:40.582Z,7.65
2022-08-05T17:38:42.441Z,9.40
2022-08-05T17:40:44.754Z,12.40
2022-08-05T17:42:51.930Z,6.95
2022-08-05T17:44:55.049Z,10.65
2022-08-05T17:46:56.612Z,12.40
2022-08-05T17:49:05.042Z,9.63
2022-08-05T17:51:09.382Z,9.88
2022-08-05T17:53:14.341Z,7.32
2022-08-05T17:55:16.264Z,8.32
2022-08-05T17:57:20.116Z,7.13
2022-08-05T17:59:22.600Z,10.15
2022-08-05T18:01:24.403Z,10.02
2022-08-05T18:03:59.199Z,10.73
2022-08-05T18:05:52.908Z,8.43
2022-08-05T18:07:56.913Z,10.45
2022-08-05T18:10:00.658Z,10.00
2022-08-05T18:12:04.497Z,7.32
2022-08-05T18:14:13.511Z,6.95
2022-08-05T18:16:15.389Z,16.80
2022-08-05T18:18:22.194Z,15.88
2022-08-05T18:20:32.112Z,11.88
2022-08-05T18:22:36.361Z,40.83
2022-08-05T18:24:55.687Z,38.55
2022-08-05T18:26:57.655Z,29.20
2022-08-05T18:28:59.869Z,103.22
2022-08-05T18:31:01.506Z,26.75
2022-08-05T18:33:03.564Z,20.60
2022-08-05T18:35:05.473Z,34.97
2022-08-05T18:37:12.355Z,24.55
2022-08-05T18:39:42.131Z,26.60
2022-08-05T18:41:55.049Z,14.85
2022-08-05T18:43:57.529Z,30.67
2022-08-05T18:46:07.447Z,45.95
2022-08-05T18:48:11.956Z,32.67
2022-08-05T18:50:44.855Z,18.20
2022-08-05T18:52:50.458Z,17.40
2022-08-05T18:54:54.438Z,45.70
2022-08-05T18:56:57.154Z,46.97
2022-08-05T18:59:00.831Z,64.47
2022-08-05T19:01:03.149Z,24.70
2022-08-05T19:03:07.040Z,30.50
2022-08-05T19:06:05.867Z,31.67
2022-08-05T19:07:45.613Z,15.27
2022-08-05T19:09:48.383Z,17.67
2022-08-05T19:12:00.231Z,20.08
2022-08-05T19:14:20.033Z,25.15
2022-08-05T19:16:28.518Z,18.27
2022-08-05T19:18:31.938Z,13.50
2022-08-05T19:20:33.508Z,11.13
2022-08-05T19:22:36.503Z,12.93
2022-08-05T19:24:54.489Z,10.80
2022-08-05T19:26:57.830Z,8.07
2022-08-05T19:29:00.024Z,9.85
2022-08-05T19:31:04.880Z,12.25
2022-08-05T19:33:16.705Z,9.55
2022-08-05T19:35:18.721Z,15.00
2022-08-05T19:37:30.090Z,10.82
2022-08-05T19:39:51.056Z,15.40
2022-08-05T19:42:06.999Z,40.78
2022-08-05T19:44:12.909Z,18.42
2022-08-05T19:46:16.892Z,27.27
2022-08-05T19:48:31.555Z,30.60
2022-08-05T19:50:36.723Z,15.57
2022-08-05T19:52:40.026Z,21.77
2022-08-05T19:54:41.786Z,14.60
2022-08-05T19:56:43.461Z,16.80
2022-08-05T19:58:54.208Z,16.35
2022-08-05T20:00:56.094Z,12.23
2022-08-05T20:02:58.800Z,11.63
2022-08-05T20:05:00.426Z,10.45
2022-08-05T20:07:02.475Z,12.70
2022-08-05T20:09:13.739Z,12.40
2022-08-05T20:11:18.084Z,21.08
2022-08-05T20:13:30.172Z,19.70
2022-08-05T20:15:52.018Z,32.55
2022-08-05T20:18:01.266Z,20.85
2022-08-05T20:20:09.537Z,15.52
2022-08-05T20:22:12.821Z,44.13
2022-08-05T20:24:14.525Z,71.55
2022-08-05T20:26:19.539Z,31.50
2022-08-05T20:28:21.201Z,31.88
2022-08-05T20:30:24.020Z,34.92
2022-08-05T20:32:28.246Z,36.97
2022-08-05T20:34:30.118Z,38.20
2022-08-05T20:36:32.794Z,21.38
2022-08-05T20:38:35.696Z,19.73
2022-08-05T20:40:37.511Z,24.42
2022-08-05T20:42:44.809Z,17.08
2022-08-05T20:44:46.986Z,25.67
2022-08-05T20:46:48.685Z,25.55
2022-08-05T20:48:51.117Z,35.53
2022-08-05T20:50:53.054Z,21.42
2022-08-05T20:52:54.921Z,16.20
2022-08-05T20:55:15.967Z,17.63
2022-08-05T20:57:42.255Z,22.08
2022-08-05T21:00:11.085Z,20.92
2022-08-05T21:02:01.775Z,20.58
2022-08-05T21:04:07.292Z,15.45
2022-08-05T21:06:28.321Z,20.00
2022-08-05T21:08:42.479Z,25.88
2022-08-05T21:10:48.688Z,19.38
2022-08-05T21:12:57.894Z,16.05
2022-08-05T21:15:04.823Z,21.88
2022-08-05T21:17:08.755Z,21.75
2022-08-05T21:19:10.544Z,19.17
2022-08-05T21:21:12.268Z,17.25
2022-08-05T21:23:14.182Z,26.25
2022-08-05T21:25:15.813Z,23.65
2022-08-05T21:27:17.362Z,20.63
2022-08-05T21:29:18.946Z,25.33
2022-08-05T21:31:25.119Z,22.75
2022-08-05T21:33:36.853Z,27.17
2022-08-05T21:35:55.851Z,23.55
2022-08-05T21:38:00.561Z,22.83
2022-08-05T21:40:05.702Z,22.60
2022-08-05T21:42:40.815Z,23.40
2022-08-05T21:44:31.009Z,22.17
2022-08-05T21:46:34.336Z,25.15
2022-08-05T21:48:36.445Z,24.67
2022-08-05T21:50:38.018Z,19.30
2022-08-05T21:52:39.570Z,29.08
2022-08-05T21:54:51.173Z,29.48
2022-08-05T21:57:29.181Z,22.02
2022-08-05T21:59:22.726Z,29.42
2022-08-05T22:01:27.042Z,23.40
2022-08-05T22:03:52.429Z,18.13
2022-08-05T22:05:50.551Z,15.00
2022-08-05T22:07:59.091Z,22.67
2022-08-05T22:10:01.451Z,21.70
2022-08-05T22:12:03.071Z,21.48
2022-08-05T22:14:33.412Z,22.13
2022-08-05T22:16:51.511Z,21.05
2022-08-05T22:18:58.587Z,16.58
2022-08-05T22:21:00.855Z,16.58
2022-08-05T22:23:26.965Z,20.27
2022-08-05T22:26:10.453Z,21.08
2022-08-05T22:28:13.279Z,17.77
2022-08-05T22:30:15.875Z,17.73
2022-08-05T22:32:19.038Z,20.90
2022-08-05T22:34:28.502Z,21.77
2022-08-05T22:36:30.681Z,20.33
2022-08-05T22:38:32.294Z,18.70
2022-08-05T22:40:36.238Z,21.20
2022-08-05T22:42:37.769Z,16.83
2022-08-05T22:44:48.407Z,18.13
2022-08-05T22:46:55.268Z,20.20
2022-08-05T22:48:57.446Z,20.13
2022-08-05T22:50:59.073Z,23.33
2022-08-05T22:53:01.055Z,16.83
2022-08-05T22:55:04.169Z,20.38
2022-08-05T22:57:06.452Z,23.77
2022-08-05T22:59:44.066Z,15.77
2022-08-05T23:02:04.199Z,20.85
2022-08-05T23:03:57.717Z,20.35
2022-08-05T23:06:01.138Z,16.30
2022-08-05T23:08:03.890Z,22.58
2022-08-05T23:10:05.933Z,28.73
2022-08-05T23:12:09.468Z,23.05
2022-08-05T23:14:12.440Z,20.55
2022-08-05T23:16:14.089Z,20.25
2022-08-05T23:18:27.866Z,17.65
2022-08-05T23:20:33.525Z,19.92
2022-08-05T23:22:39.509Z,19.98
2022-08-05T23:24:46.221Z,27.00
2022-08-05T23:26:52.795Z,20.35
2022-08-05T23:28:54.525Z,21.42
2022-08-05T23:30:56.287Z,26.60
2022-08-05T23:33:22.526Z,21.02
2022-08-05T23:35:38.068Z,20.58
2022-08-05T23:37:39.811Z,20.27
2022-08-05T23:39:53.920Z,19.08
2022-08-05T23:41:56.571Z,25.20
2022-08-05T23:44:05.581Z,19.10
2022-08-05T23:46:20.666Z,19.83
2022-08-05T23:48:23.620Z,21.10
2022-08-05T23:50:27.995Z,18.30
2022-08-05T23:52:36.120Z,19.77
2022-08-05T23:54:55.665Z,22.92
2022-08-05T23:57:03.336Z,22.52
2022-08-05T23:59:05.854Z,24.30
